Time;durP1;ratioP1;P1;durP2;ratioP2;P2;SDS_P1;SDS_P2;PMS_P1;PMS_P2;Temp;Humidity;BMP_temperature;BMP_pressure;BME280_temperature;BME280_humidity;BME280_pressure;Samples;Min_cycle;Max_cycle;Signal;HPM_P1;HPM_P2
2022/01/01 00:00:40;;;;;;;81.57;59.10;;;12.90;99.90;;;;;;4968895;28;20058;-68
2022/01/01 00:03:06;;;;;;;75.47;54.95;;;13.00;99.90;;;;;;4969162;28;20035;-68
2022/01/01 00:05:31;;;;;;;69.78;50.25;;;12.90;99.90;;;;;;4970296;28;20031;-68
2022/01/01 00:07:59;;;;;;;64.95;46.97;;;12.80;99.90;;;;;;4970317;28;20055;-68
2022/01/01 00:10:24;;;;;;;60.78;42.08;;;13.00;99.90;;;;;;4970666;28;20161;-68
2022/01/01 00:12:50;;;;;;;51.80;39.75;;;12.90;99.90;;;;;;4970743;28;20107;-68
2022/01/01 00:15:16;;;;;;;68.95;51.17;;;13.10;99.90;;;;;;4971306;28;20038;-68
2022/01/01 00:17:42;;;;;;;59.20;42.95;;;13.00;99.90;;;;;;4970371;28;20133;-68
2022/01/01 00:20:09;;;;;;;61.80;41.67;;;13.10;99.90;;;;;;4971121;28;20034;-68
2022/01/01 00:22:36;;;;;;;69.88;44.13;;;12.70;99.90;;;;;;4970517;28;20026;-68
2022/01/01 00:25:03;;;;;;;63.55;43.88;;;12.90;99.90;;;;;;4970385;28;20030;-68
2022/01/01 00:27:29;;;;;;;51.40;39.17;;;12.90;99.90;;;;;;4970632;28;20543;-68
2022/01/01 00:29:54;;;;;;;54.65;38.78;;;13.10;99.90;;;;;;4970021;28;20126;-68
2022/01/01 00:32:19;;;;;;;63.72;43.67;;;12.80;99.90;;;;;;4970491;28;20042;-68
2022/01/01 00:34:45;;;;;;;67.45;43.72;;;12.90;99.90;;;;;;4970251;28;20030;-68
2022/01/01 00:37:11;;;;;;;69.88;47.40;;;12.90;99.90;;;;;;4970097;28;20482;-68
2022/01/01 00:39:36;;;;;;;69.47;48.05;;;13.10;99.90;;;;;;4970546;28;20034;-68
2022/01/01 00:42:02;;;;;;;63.10;45.65;;;12.80;99.90;;;;;;4970260;28;20035;-68
2022/01/01 00:44:30;;;;;;;68.05;46.63;;;12.90;99.90;;;;;;4970378;28;20383;-68
2022/01/01 00:46:56;;;;;;;66.20;45.10;;;12.80;99.90;;;;;;4970079;28;20070;-68
2022/01/01 00:49:22;;;;;;;70.68;46.55;;;12.70;99.90;;;;;;4968737;28;20053;-68
2022/01/01 00:51:47;;;;;;;68.07;42.78;;;12.80;99.90;;;;;;4969072;28;20519;-68
2022/01/01 00:54:13;;;;;;;73.30;45.58;;;13.00;99.90;;;;;;4969999;28;20045;-69
2022/01/01 00:56:38;;;;;;;67.90;43.53;;;12.90;99.90;;;;;;4969531;28;20035;-68
2022/01/01 00:59:04;;;;;;;58.85;42.08;;;12.80;99.90;;;;;;4969656;28;20155;-68
2022/01/01 01:01:29;;;;;;;58.97;40.13;;;12.70;99.90;;;;;;4969856;28;20045;-68
2022/01/01 01:03:55;;;;;;;58.55;40.78;;;12.60;99.90;;;;;;4969338;28;20794;-68
2022/01/01 01:06:20;;;;;;;61.38;39.28;;;12.80;99.90;;;;;;4969652;28;20070;-68
2022/01/01 01:08:46;;;;;;;56.35;41.20;;;12.80;99.90;;;;;;4969209;28;20030;-68
2022/01/01 01:11:11;;;;;;;61.92;41.30;;;12.90;99.90;;;;;;4969729;28;20027;-68
2022/01/01 01:13:44;;;;;;;59.65;42.17;;;13.00;99.90;;;;;;4969560;28;20113;-68
2022/01/01 01:16:09;;;;;;;66.75;42.72;;;12.70;99.90;;;;;;4967868;28;20142;-68
2022/01/01 01:18:35;;;;;;;55.83;42.45;;;12.80;99.90;;;;;;4969595;28;20133;-68
2022/01/01 01:21:00;;;;;;;64.32;43.28;;;12.90;99.90;;;;;;4968400;28;20126;-68
2022/01/01 01:23:26;;;;;;;53.90;40.88;;;12.60;99.90;;;;;;4969406;28;20126;-68
2022/01/01 01:25:54;;;;;;;64.50;43.25;;;12.80;99.90;;;;;;4968809;28;20034;-68
2022/01/01 01:28:20;;;;;;;59.90;41.85;;;12.70;99.90;;;;;;4969408;28;20357;-68
2022/01/01 01:30:46;;;;;;;65.68;48.47;;;12.70;99.90;;;;;;4967346;28;20129;-68
2022/01/01 01:33:12;;;;;;;64.32;45.60;;;12.50;99.90;;;;;;4968841;28;20484;-69
2022/01/01 01:35:37;;;;;;;57.83;45.17;;;12.60;99.90;;;;;;4968839;28;20034;-68
2022/01/01 01:38:04;;;;;;;60.80;45.15;;;12.50;99.90;;;;;;4968451;28;20066;-68
2022/01/01 01:40:29;;;;;;;75.78;50.95;;;12.70;99.90;;;;;;4969168;28;20019;-68
2022/01/01 01:42:55;;;;;;;76.75;49.33;;;12.70;99.90;;;;;;4968463;28;20089;-68
2022/01/01 01:45:23;;;;;;;75.13;51.85;;;12.60;99.90;;;;;;4968874;28;20480;-68
2022/01/01 01:47:50;;;;;;;70.50;52.50;;;12.90;99.90;;;;;;4968983;28;20026;-68
2022/01/01 01:50:18;;;;;;;73.95;49.55;;;12.90;99.90;;;;;;4968262;28;20432;-68
2022/01/01 01:52:53;;;;;;;60.80;46.20;;;12.60;99.90;;;;;;4968671;28;20515;-68
2022/01/01 01:55:18;;;;;;;69.22;48.15;;;12.80;99.90;;;;;;4968654;28;20062;-68
2022/01/01 01:57:44;;;;;;;63.05;44.20;;;12.70;99.90;;;;;;4966865;28;20070;-68
2022/01/01 02:01:20;;;;;;;61.38;42.70;;;12.80;99.90;;;;;;4968173;28;20475;-68
2022/01/01 02:03:03;;;;;;;62.65;42.40;;;;;;;;;;4960974;28;20050;-66
2022/01/01 02:05:29;;;;;;;62.20;42.05;;;12.70;99.90;;;;;;4968558;28;20110;-66
2022/01/01 02:07:56;;;;;;;64.00;43.85;;;12.60;99.90;;;;;;4969325;28;20122;-66
2022/01/01 02:10:23;;;;;;;62.60;41.80;;;12.50;99.90;;;;;;4968201;28;20584;-67
2022/01/01 02:12:53;;;;;;;87.32;57.47;;;12.90;99.90;;;;;;4968544;28;20118;-67
2022/01/01 02:18:26;;;;;;;75.65;49.60;;;12.60;99.90;;;;;;4971486;28;20043;-67
2022/01/01 02:20:55;;;;;;;70.32;49.50;;;12.60;99.90;;;;;;4968243;28;20476;-67
2022/01/01 02:23:23;;;;;;;71.68;50.47;;;12.80;99.90;;;;;;4968270;28;20431;-67
2022/01/01 02:25:50;;;;;;;75.93;50.92;;;12.70;99.90;;;;;;4968648;28;20027;-67
2022/01/01 02:28:16;;;;;;;66.82;45.80;;;12.50;99.90;;;;;;4967958;28;20085;-67
2022/01/01 02:30:42;;;;;;;68.68;47.60;;;12.80;99.90;;;;;;4968354;28;20050;-67
2022/01/01 02:33:07;;;;;;;65.45;47.25;;;12.80;99.90;;;;;;4967982;28;20136;-67
2022/01/01 02:35:33;;;;;;;74.25;52.67;;;12.80;99.90;;;;;;4968591;28;20502;-67
2022/01/01 02:37:58;;;;;;;78.63;53.88;;;12.70;99.90;;;;;;4968727;28;20043;-67
2022/01/01 02:40:24;;;;;;;73.32;52.50;;;12.50;99.90;;;;;;4968200;28;20434;-67
2022/01/01 02:42:51;;;;;;;68.20;49.72;;;12.80;99.90;;;;;;4968858;28;20023;-67
2022/01/01 02:45:17;;;;;;;79.78;49.45;;;12.20;99.90;;;;;;4968353;28;20033;-67
2022/01/01 02:47:43;;;;;;;76.47;53.97;;;12.80;99.90;;;;;;4968020;28;20493;-67
2022/01/01 02:50:10;;;;;;;75.82;50.63;;;12.50;99.90;;;;;;4968432;28;20035;-67
2022/01/01 02:52:35;;;;;;;66.05;46.00;;;12.70;99.90;;;;;;4968306;28;20122;-67
2022/01/01 02:55:01;;;;;;;63.72;46.35;;;12.80;99.90;;;;;;4968677;28;20105;-67
2022/01/01 02:57:27;;;;;;;61.08;44.75;;;12.60;99.90;;;;;;4966263;28;20042;-67
2022/01/01 02:59:52;;;;;;;64.65;45.80;;;12.50;99.90;;;;;;4968225;28;20023;-67
2022/01/01 03:02:18;;;;;;;63.58;44.53;;;;;;;;;;4967409;28;20126;-67
2022/01/01 03:04:44;;;;;;;65.05;46.03;;;12.50;99.90;;;;;;4968389;28;20034;-67
2022/01/01 03:07:09;;;;;;;65.10;43.60;;;12.70;99.90;;;;;;4968216;28;20031;-67
2022/01/01 03:09:35;;;;;;;59.53;43.03;;;12.70;99.90;;;;;;4967925;28;20037;-67
2022/01/01 03:12:14;;;;;;;63.10;42.90;;;12.70;99.90;;;;;;4968360;28;20031;-67
2022/01/01 03:14:40;;;;;;;60.05;40.70;;;12.60;99.90;;;;;;4971621;28;20037;-67
2022/01/01 03:17:06;;;;;;;56.78;42.22;;;12.60;99.90;;;;;;4971565;28;20361;-67
2022/01/01 03:19:32;;;;;;;58.80;41.08;;;;;;;;;;4971493;28;20102;-67
2022/01/01 03:21:59;;;;;;;62.10;42.08;;;12.50;99.90;;;;;;4972095;28;20034;-67
2022/01/01 03:24:24;;;;;;;63.97;44.97;;;12.70;99.90;;;;;;4971410;28;20019;-67
2022/01/01 03:26:50;;;;;;;62.17;43.28;;;12.70;99.90;;;;;;4972220;28;20428;-67
2022/01/01 03:29:15;;;;;;;60.38;43.38;;;12.50;99.90;;;;;;4971483;28;20039;-67
2022/01/01 03:31:41;;;;;;;58.53;41.03;;;12.80;99.90;;;;;;4970818;28;20023;-67
2022/01/01 03:34:06;;;;;;;54.33;39.53;;;12.50;99.90;;;;;;4971818;28;20057;-67
2022/01/01 03:36:32;;;;;;;58.55;42.45;;;12.50;99.90;;;;;;4971304;28;20030;-67
2022/01/01 03:38:59;;;;;;;67.78;43.67;;;12.60;99.90;;;;;;4971739;28;20037;-67
2022/01/01 03:41:26;;;;;;;61.60;42.97;;;12.70;99.90;;;;;;4971177;28;20023;-67
2022/01/01 03:43:51;;;;;;;60.45;43.08;;;12.40;99.90;;;;;;4971617;28;20360;-67
2022/01/01 03:46:17;;;;;;;57.08;39.63;;;12.50;99.90;;;;;;4970582;28;20018;-67
2022/01/01 03:48:42;;;;;;;55.47;38.17;;;12.60;99.90;;;;;;4971107;28;20049;-67
2022/01/01 03:51:08;;;;;;;50.92;34.83;;;12.60;99.90;;;;;;4971514;28;20031;-67
2022/01/01 03:53:33;;;;;;;55.17;38.85;;;12.60;99.90;;;;;;4971049;28;20102;-67
2022/01/01 03:55:59;;;;;;;45.00;35.22;;;12.60;99.90;;;;;;4971427;28;20039;-67
2022/01/01 03:58:25;;;;;;;48.00;33.90;;;12.50;99.90;;;;;;4970968;28;20038;-67
2022/01/01 04:00:50;;;;;;;47.72;31.70;;;12.50;99.90;;;;;;4970743;28;20015;-67
2022/01/01 04:03:17;;;;;;;50.85;32.95;;;13.40;99.90;;;;;;4971248;28;20031;-67
2022/01/01 04:05:43;;;;;;;48.53;30.58;;;12.60;99.90;;;;;;4970755;28;20074;-67
2022/01/01 04:08:10;;;;;;;39.28;25.98;;;12.70;99.90;;;;;;4969807;28;20346;-67
2022/01/01 04:10:36;;;;;;;40.70;29.85;;;12.60;99.90;;;;;;4970966;28;20030;-67
2022/01/01 04:13:03;;;;;;;46.33;28.70;;;12.50;99.90;;;;;;4971228;28;20049;-67
2022/01/01 04:15:30;;;;;;;41.75;27.02;;;12.80;99.90;;;;;;4969941;28;20133;-67
2022/01/01 04:17:59;;;;;;;41.65;28.77;;;12.70;99.90;;;;;;4970372;28;20046;-67
2022/01/01 04:20:25;;;;;;;44.60;28.08;;;12.30;99.90;;;;;;4970515;28;20101;-67
2022/01/01 04:22:54;;;;;;;35.17;26.98;;;12.80;99.90;;;;;;4969042;28;20536;-67
2022/01/01 04:25:21;;;;;;;37.83;25.42;;;12.90;99.90;;;;;;4970808;28;20019;-67
2022/01/01 04:27:47;;;;;;;39.45;25.58;;;13.20;99.90;;;;;;4970538;28;20129;-67
2022/01/01 04:30:13;;;;;;;35.33;23.35;;;12.60;99.90;;;;;;4970584;28;20109;-67
2022/01/01 04:32:39;;;;;;;42.22;25.98;;;12.60;99.90;;;;;;4970370;28;20872;-67
2022/01/01 04:35:05;;;;;;;34.60;22.33;;;12.90;99.90;;;;;;4970908;28;20027;-67
2022/01/01 04:37:31;;;;;;;34.75;20.35;;;12.60;99.90;;;;;;4970444;28;20441;-67
2022/01/01 04:39:59;;;;;;;35.25;21.83;;;12.70;99.90;;;;;;4970845;28;20042;-67
2022/01/01 04:42:29;;;;;;;26.10;18.30;;;12.90;99.90;;;;;;4970366;28;20387;-67
2022/01/01 04:44:55;;;;;;;35.53;20.30;;;12.60;99.90;;;;;;4970378;28;20096;-67
2022/01/01 04:47:20;;;;;;;28.05;18.17;;;13.70;99.90;;;;;;4970701;28;20408;-67
2022/01/01 04:49:46;;;;;;;38.58;19.13;;;12.60;99.90;;;;;;4970286;28;20524;-67
2022/01/01 04:52:11;;;;;;;27.63;15.27;;;12.60;99.90;;;;;;4970455;28;20035;-67
2022/01/01 04:54:41;;;;;;;31.15;15.93;;;12.70;99.90;;;;;;4970164;28;20377;-67
2022/01/01 04:57:07;;;;;;;28.85;16.52;;;13.00;99.90;;;;;;4969576;28;20174;-67
2022/01/01 04:59:34;;;;;;;26.27;15.10;;;13.00;99.90;;;;;;4969064;28;20897;-67
2022/01/01 05:02:00;;;;;;;28.00;15.80;;;12.60;99.90;;;;;;4970152;28;20035;-67
2022/01/01 05:04:25;;;;;;;26.10;15.00;;;13.00;99.90;;;;;;4969827;28;20027;-67
2022/01/01 05:06:52;;;;;;;21.05;14.82;;;12.50;99.90;;;;;;4968935;28;20363;-67
2022/01/01 05:09:18;;;;;;;28.33;14.43;;;12.70;99.90;;;;;;4970047;28;20110;-67
2022/01/01 05:11:43;;;;;;;21.98;13.75;;;12.80;99.90;;;;;;4969647;28;20373;-67
2022/01/01 05:14:09;;;;;;;20.00;13.45;;;12.90;99.90;;;;;;4969892;28;20026;-67
2022/01/01 05:16:35;;;;;;;24.98;11.25;;;12.80;99.90;;;;;;4969418;28;20476;-67
2022/01/01 05:19:01;;;;;;;24.05;13.63;;;12.80;99.90;;;;;;4970186;28;20038;-67
2022/01/01 05:21:32;;;;;;;26.15;12.77;;;13.30;99.90;;;;;;4969624;28;20034;-67
2022/01/01 05:23:58;;;;;;;16.15;12.13;;;12.30;99.90;;;;;;4969296;28;20030;-67
2022/01/01 05:26:24;;;;;;;21.60;12.27;;;12.60;99.90;;;;;;4969632;28;20053;-67
2022/01/01 05:28:50;;;;;;;19.55;13.52;;;12.70;99.90;;;;;;4969256;28;20512;-67
2022/01/01 05:31:19;;;;;;;28.15;14.23;;;12.80;99.90;;;;;;4970014;28;20031;-67
2022/01/01 05:33:51;;;;;;;23.33;13.73;;;12.60;99.90;;;;;;4969481;28;20113;-67
2022/01/01 05:36:17;;;;;;;20.25;12.98;;;12.20;99.90;;;;;;4969324;28;20034;-67
2022/01/01 05:38:44;;;;;;;21.50;13.30;;;12.80;99.90;;;;;;4968981;28;20043;-67
2022/01/01 05:41:10;;;;;;;17.00;13.05;;;12.80;99.90;;;;;;4969541;28;20023;-67
2022/01/01 05:43:35;;;;;;;25.08;12.38;;;12.70;99.90;;;;;;4968838;28;20035;-67
2022/01/01 05:46:02;;;;;;;24.13;13.10;;;12.70;99.90;;;;;;4969810;28;20034;-67
2022/01/01 05:48:27;;;;;;;20.70;12.55;;;12.80;99.90;;;;;;4969117;28;20034;-67
2022/01/01 05:50:53;;;;;;;18.27;12.30;;;12.90;99.90;;;;;;4969478;28;20042;-67
2022/01/01 05:53:19;;;;;;;21.15;12.40;;;12.90;99.90;;;;;;4969063;28;20035;-67
2022/01/01 05:55:45;;;;;;;21.48;12.93;;;12.60;99.90;;;;;;4969012;28;20037;-67
2022/01/01 05:58:11;;;;;;;24.10;13.18;;;13.40;99.90;;;;;;4969038;28;20042;-67
2022/01/01 06:00:36;;;;;;;21.65;12.55;;;12.90;99.90;;;;;;4968579;28;20031;-67
2022/01/01 06:03:03;;;;;;;20.40;12.77;;;;;;;;;;4969210;28;20034;-67
2022/01/01 06:05:30;;;;;;;23.67;13.07;;;12.80;99.90;;;;;;4968644;28;20030;-67
2022/01/01 06:07:57;;;;;;;21.25;11.82;;;12.90;99.90;;;;;;4968446;28;20469;-67
2022/01/01 06:10:23;;;;;;;15.65;10.38;;;12.90;99.90;;;;;;4968936;28;20468;-67
2022/01/01 06:12:49;;;;;;;20.23;11.98;;;13.70;99.90;;;;;;4968491;28;20062;-67
2022/01/01 06:15:15;;;;;;;19.75;12.93;;;12.50;99.90;;;;;;4969075;28;20105;-67
2022/01/01 06:17:41;;;;;;;21.50;14.27;;;12.60;99.90;;;;;;4968412;28;20047;-67
2022/01/01 06:20:07;;;;;;;24.10;15.18;;;13.50;99.90;;;;;;4968971;28;20054;-67
2022/01/01 06:22:32;;;;;;;24.75;15.82;;;12.80;99.90;;;;;;4968469;28;20027;-67
2022/01/01 06:24:58;;;;;;;23.52;14.80;;;12.90;99.90;;;;;;4968487;28;20034;-67
2022/01/01 06:27:23;;;;;;;23.67;16.10;;;13.10;99.90;;;;;;4968053;28;20475;-67
2022/01/01 06:29:50;;;;;;;24.52;18.85;;;12.70;99.90;;;;;;4968544;28;20507;-67
2022/01/01 06:32:16;;;;;;;26.08;19.42;;;12.60;99.90;;;;;;4962608;28;20022;-67
2022/01/01 06:34:41;;;;;;;29.95;21.30;;;12.80;99.90;;;;;;4968130;28;20102;-67
2022/01/01 06:37:07;;;;;;;34.17;21.80;;;12.80;99.90;;;;;;4967205;28;20398;-67
2022/01/01 06:39:32;;;;;;;29.42;22.88;;;12.70;99.90;;;;;;4967761;28;20123;-67
2022/01/01 06:41:58;;;;;;;29.08;21.17;;;12.60;99.90;;;;;;4968597;28;20030;-67
2022/01/01 06:44:23;;;;;;;30.60;21.73;;;12.60;99.90;;;;;;4968324;28;20046;-67
2022/01/01 06:46:49;;;;;;;29.33;21.58;;;12.60;99.90;;;;;;4968109;28;20037;-67
2022/01/01 06:49:15;;;;;;;36.38;22.30;;;12.10;99.90;;;;;;4972640;28;20089;-67
2022/01/01 06:51:40;;;;;;;27.65;21.58;;;12.30;99.90;;;;;;4971908;28;20038;-67
2022/01/01 06:54:06;;;;;;;29.23;18.75;;;12.20;99.90;;;;;;4971938;28;20118;-67
2022/01/01 06:56:31;;;;;;;26.23;17.25;;;12.10;99.90;;;;;;4971863;28;20377;-67
2022/01/01 06:58:57;;;;;;;28.90;17.60;;;12.10;99.90;;;;;;4972259;28;20041;-67
2022/01/01 07:01:22;;;;;;;20.45;15.52;;;11.80;99.90;;;;;;4970680;28;20464;-67
2022/01/01 07:03:51;;;;;;;22.17;14.32;;;11.90;99.90;;;;;;4986718;28;20046;-67
2022/01/01 07:06:17;;;;;;;25.15;14.27;;;;;;;;;;4972144;28;20034;-67
2022/01/01 07:08:42;;;;;;;25.85;14.90;;;11.90;99.90;;;;;;4971285;28;20034;-67
2022/01/01 07:11:08;;;;;;;22.20;13.57;;;12.00;99.90;;;;;;4972276;28;20346;-67
2022/01/01 07:13:33;;;;;;;14.07;10.63;;;11.80;99.90;;;;;;4971349;28;20027;-67
2022/01/01 07:15:59;;;;;;;14.65;10.80;;;11.70;99.90;;;;;;4972196;28;20836;-67
2022/01/01 07:18:24;;;;;;;14.70;8.68;;;12.10;99.90;;;;;;4971792;28;20035;-67
2022/01/01 07:20:50;;;;;;;12.85;8.10;;;11.80;99.90;;;;;;4971332;28;20069;-67
2022/01/01 07:23:16;;;;;;;13.15;7.95;;;12.10;99.90;;;;;;4971670;28;20030;-67
2022/01/01 07:25:41;;;;;;;18.70;9.82;;;11.90;99.90;;;;;;4971293;28;20106;-67
2022/01/01 07:28:07;;;;;;;13.20;8.55;;;11.90;99.90;;;;;;4972057;28;20495;-67
2022/01/01 07:30:33;;;;;;;16.17;8.77;;;11.60;99.90;;;;;;4971093;28;20109;-67
2022/01/01 07:32:58;;;;;;;17.17;8.27;;;12.10;99.90;;;;;;4971368;28;20039;-67
2022/01/01 07:35:24;;;;;;;15.40;7.90;;;12.30;99.90;;;;;;4986517;28;20025;-66
2022/01/01 07:37:50;;;;;;;15.27;9.10;;;12.10;99.90;;;;;;4970827;28;20127;-67
2022/01/01 07:40:17;;;;;;;14.55;8.45;;;12.10;99.90;;;;;;4971840;28;20445;-67
2022/01/01 07:42:43;;;;;;;17.50;9.27;;;11.60;99.90;;;;;;4970913;28;20827;-67
2022/01/01 07:45:09;;;;;;;12.48;8.10;;;11.90;99.90;;;;;;4971824;28;20045;-67
2022/01/01 07:47:35;;;;;;;15.77;7.50;;;;;;;;;;4971160;28;20019;-67
2022/01/01 07:50:02;;;;;;;12.20;8.00;;;12.00;99.90;;;;;;4971652;28;20037;-67
2022/01/01 07:52:28;;;;;;;16.17;7.35;;;;;;;;;;4969067;28;20130;-67
2022/01/01 07:54:53;;;;;;;13.75;6.95;;;11.80;99.90;;;;;;4971240;28;20106;-67
2022/01/01 07:57:18;;;;;;;13.10;7.53;;;11.90;99.90;;;;;;4971681;28;20113;-67
2022/01/01 07:59:44;;;;;;;12.10;7.00;;;11.90;99.90;;;;;;4970594;28;20471;-67
2022/01/01 08:02:09;;;;;;;10.70;6.57;;;11.80;99.90;;;;;;4971465;28;20043;-67
2022/01/01 08:04:35;;;;;;;10.38;6.68;;;11.70;99.90;;;;;;4970889;28;20059;-67
2022/01/01 08:07:01;;;;;;;13.32;6.40;;;11.90;99.90;;;;;;4970774;28;20419;-67
2022/01/01 08:09:28;;;;;;;13.18;6.43;;;;;;;;;;4970982;28;20034;-67
2022/01/01 08:11:54;;;;;;;15.13;6.63;;;11.80;99.90;;;;;;4971341;28;20034;-67
2022/01/01 08:14:20;;;;;;;14.90;6.87;;;11.80;99.90;;;;;;4970099;28;20031;-67
2022/01/01 08:16:59;;;;;;;13.40;7.80;;;11.80;99.90;;;;;;4970650;28;20476;-67
2022/01/01 08:19:26;;;;;;;14.00;7.63;;;11.70;99.90;;;;;;4971302;28;20129;-67
2022/01/01 08:21:51;;;;;;;11.75;6.45;;;12.20;99.90;;;;;;4970238;28;20038;-67
2022/01/01 08:24:17;;;;;;;10.85;7.18;;;;;;;;;;4971227;28;20030;-67
2022/01/01 08:26:43;;;;;;;11.45;6.60;;;11.80;99.90;;;;;;4970021;28;20031;-67
2022/01/01 08:29:08;;;;;;;9.20;5.63;;;12.30;99.90;;;;;;4971235;28;20348;-67
2022/01/01 08:31:34;;;;;;;14.20;6.60;;;11.90;99.90;;;;;;4970363;28;20026;-67
2022/01/01 08:34:00;;;;;;;12.97;6.40;;;11.80;99.90;;;;;;4970984;28;20176;-67
2022/01/01 08:36:25;;;;;;;13.27;6.82;;;;;;;;;;4970591;28;20071;-67
2022/01/01 08:38:51;;;;;;;13.38;6.43;;;12.10;99.90;;;;;;4970517;28;20054;-67
2022/01/01 08:41:17;;;;;;;10.35;6.10;;;12.30;99.90;;;;;;4970681;28;20041;-67
2022/01/01 08:43:42;;;;;;;12.57;6.72;;;12.30;99.90;;;;;;4970249;28;20114;-67
2022/01/01 08:46:08;;;;;;;10.85;6.13;;;12.50;99.90;;;;;;4970882;28;20077;-67
2022/01/01 08:48:34;;;;;;;13.23;6.85;;;12.50;99.90;;;;;;4970004;28;20053;-67
2022/01/01 08:51:10;;;;;;;17.20;7.53;;;12.60;99.90;;;;;;4970383;28;20136;-67
2022/01/01 08:53:36;;;;;;;9.23;5.70;;;12.40;99.90;;;;;;4970113;28;20034;-67
2022/01/01 08:56:02;;;;;;;8.82;5.72;;;12.60;99.90;;;;;;4970612;28;20023;-67
2022/01/01 08:58:27;;;;;;;18.02;6.35;;;12.70;99.90;;;;;;4969577;28;20125;-67
2022/01/01 09:00:53;;;;;;;10.18;5.53;;;12.40;99.90;;;;;;4984588;28;20081;-67
2022/01/01 09:03:19;;;;;;;11.05;5.20;;;12.60;99.90;;;;;;4970585;28;20504;-66
2022/01/01 09:05:44;;;;;;;11.57;5.80;;;12.50;99.90;;;;;;4969348;28;20034;-67
2022/01/01 09:08:10;;;;;;;15.55;5.60;;;12.50;99.90;;;;;;4970619;28;20197;-67
2022/01/01 09:10:35;;;;;;;13.05;5.82;;;12.60;99.90;;;;;;4969095;28;20026;-67
2022/01/01 09:13:01;;;;;;;14.07;5.85;;;12.80;99.90;;;;;;4970230;28;20031;-68
2022/01/01 09:15:26;;;;;;;9.48;5.32;;;12.70;99.90;;;;;;4969694;28;20062;-71
2022/01/01 09:17:52;;;;;;;9.00;4.95;;;12.30;99.90;;;;;;4969707;28;20467;-70
2022/01/01 09:20:17;;;;;;;11.70;5.82;;;12.70;99.90;;;;;;4970076;28;20023;-71
2022/01/01 09:22:43;;;;;;;10.32;4.95;;;12.80;99.90;;;;;;4969558;28;20071;-71
2022/01/01 09:25:08;;;;;;;13.52;5.25;;;12.80;99.90;;;;;;4970237;28;20026;-69
2022/01/01 09:27:34;;;;;;;14.75;5.72;;;13.10;99.90;;;;;;4969763;28;20109;-70
2022/01/01 09:29:59;;;;;;;10.38;5.13;;;12.90;99.90;;;;;;4969695;28;20446;-69
2022/01/01 09:32:25;;;;;;;8.15;5.47;;;13.30;99.90;;;;;;4969956;28;20089;-69
2022/01/01 09:34:50;;;;;;;12.88;5.32;;;13.30;99.90;;;;;;4968831;28;20472;-69
2022/01/01 09:37:16;;;;;;;12.90;5.53;;;13.00;99.90;;;;;;4969192;28;20046;-68
2022/01/01 09:39:41;;;;;;;14.32;4.43;;;13.20;99.90;;;;;;4968793;28;20085;-68
2022/01/01 09:42:11;;;;;;;6.53;4.50;;;13.20;99.90;;;;;;4969698;28;20074;-69
2022/01/01 09:44:38;;;;;;;13.45;5.35;;;13.40;99.90;;;;;;4969057;28;20029;-68
2022/01/01 09:47:04;;;;;;;10.10;5.63;;;13.60;99.90;;;;;;4969813;28;20398;-69
2022/01/01 09:49:29;;;;;;;9.55;5.43;;;13.20;99.90;;;;;;4969018;28;20045;-69
2022/01/01 09:51:55;;;;;;;6.50;4.97;;;13.20;99.90;;;;;;4969075;28;20034;-69
2022/01/01 09:54:21;;;;;;;10.05;5.30;;;12.90;99.90;;;;;;4969790;28;20493;-69
2022/01/01 09:56:46;;;;;;;12.05;5.22;;;13.60;99.90;;;;;;4968820;28;20062;-69
2022/01/01 09:59:14;;;;;;;8.48;4.82;;;13.30;99.90;;;;;;4969602;28;20053;-69
2022/01/01 10:01:40;;;;;;;12.50;5.85;;;13.30;99.90;;;;;;4968839;28;20129;-69
2022/01/01 10:04:14;;;;;;;7.78;4.95;;;13.00;99.90;;;;;;4968435;28;20119;-69
2022/01/01 10:06:39;;;;;;;7.43;5.03;;;13.10;99.90;;;;;;4968322;28;20329;-69
2022/01/01 10:09:07;;;;;;;9.10;5.38;;;13.10;99.90;;;;;;4969430;28;20031;-69
2022/01/01 10:11:33;;;;;;;7.68;4.63;;;13.20;99.90;;;;;;4968011;28;20440;-69
2022/01/01 10:14:03;;;;;;;11.20;5.20;;;12.90;99.90;;;;;;4968732;28;20062;-69
2022/01/01 10:16:28;;;;;;;12.50;6.75;;;13.50;99.90;;;;;;4969013;28;20109;-69
2022/01/01 10:18:54;;;;;;;10.40;6.50;;;13.20;99.90;;;;;;4967888;28;20117;-69
2022/01/01 10:21:22;;;;;;;13.55;6.18;;;13.60;99.90;;;;;;4969021;28;20357;-69
2022/01/01 10:23:51;;;;;;;9.35;6.07;;;13.50;99.90;;;;;;4965518;28;20061;-69
2022/01/01 10:29:22;;;;;;;10.40;6.50;;;13.50;99.90;;;;;;4969087;28;20118;-70
2022/01/01 10:32:11;;;;;;;9.18;5.05;;;13.20;99.90;;;;;;4968208;28;20027;-70
2022/01/01 10:34:44;;;;;;;9.60;5.10;;;13.40;99.90;;;;;;4963173;28;20035;-70
2022/01/01 10:37:12;;;;;;;9.00;5.78;;;13.40;99.90;;;;;;4968507;28;20039;-70
2022/01/01 10:39:49;;;;;;;8.55;6.72;;;13.40;99.90;;;;;;4967258;28;20030;-70
2022/01/01 10:42:14;;;;;;;13.48;7.00;;;13.40;99.90;;;;;;4968633;28;20035;-70
2022/01/01 10:44:46;;;;;;;11.95;6.05;;;13.60;99.90;;;;;;4968473;28;20070;-69
2022/01/01 10:47:32;;;;;;;7.72;5.55;;;13.80;99.90;;;;;;4968390;28;20022;-70
2022/01/01 10:50:14;;;;;;;10.90;6.20;;;13.60;99.90;;;;;;4968387;28;20030;-70
2022/01/01 10:52:47;;;;;;;11.35;5.95;;;13.60;99.90;;;;;;4968330;28;20129;-70
2022/01/01 10:55:14;;;;;;;12.70;6.15;;;13.50;99.90;;;;;;4969000;28;20027;-70
2022/01/01 10:57:42;;;;;;;11.77;5.97;;;13.80;99.90;;;;;;4968319;28;20057;-71
2022/01/01 11:00:23;;;;;;;12.85;6.65;;;13.70;99.90;;;;;;4968362;28;20333;-70
2022/01/01 11:02:53;;;;;;;9.35;6.07;;;13.70;99.90;;;;;;4968111;28;20035;-70
2022/01/01 11:05:33;;;;;;;13.20;7.43;;;13.70;99.90;;;;;;4969055;28;20046;-70
2022/01/01 11:08:00;;;;;;;16.95;6.50;;;13.70;99.90;;;;;;4968239;28;20484;-70
2022/01/01 11:10:27;;;;;;;10.77;7.35;;;13.90;99.90;;;;;;4967264;28;20471;-70
2022/01/01 11:12:54;;;;;;;14.02;7.63;;;13.70;99.90;;;;;;4968120;28;20507;-70
2022/01/01 11:15:20;;;;;;;13.13;8.18;;;13.70;99.90;;;;;;4968403;28;20038;-70
2022/01/01 11:17:46;;;;;;;10.63;7.50;;;14.20;99.90;;;;;;4967437;28;20034;-69
2022/01/01 11:20:13;;;;;;;13.18;7.70;;;13.70;99.90;;;;;;4967808;28;20103;-69
2022/01/01 11:22:39;;;;;;;11.10;7.15;;;13.80;99.90;;;;;;4967980;28;20038;-69
2022/01/01 11:25:05;;;;;;;13.50;7.47;;;13.70;99.90;;;;;;4968326;28;20031;-69
2022/01/01 11:27:31;;;;;;;10.70;7.75;;;13.70;99.90;;;;;;4968141;28;20714;-69
2022/01/01 11:29:59;;;;;;;11.52;6.47;;;13.90;99.90;;;;;;4967305;28;20078;-69
2022/01/01 11:32:37;;;;;;;10.63;6.57;;;14.00;99.90;;;;;;4968308;28;20380;-69
2022/01/01 11:35:05;;;;;;;12.52;7.60;;;13.80;99.90;;;;;;4971336;28;20830;-70
2022/01/01 11:37:57;;;;;;;12.30;6.85;;;13.70;99.90;;;;;;4971750;28;20068;-69
2022/01/01 11:40:24;;;;;;;6.38;5.55;;;13.90;99.90;;;;;;4986564;28;20033;-69
2022/01/01 11:42:49;;;;;;;10.15;6.22;;;13.80;99.90;;;;;;4970533;28;20109;-69
2022/01/01 11:45:41;;;;;;;10.40;5.90;;;13.90;99.90;;;;;;4970503;28;20106;-70
2022/01/01 11:48:28;;;;;;;7.85;5.68;;;13.90;99.90;;;;;;4966170;28;20023;-69
2022/01/01 11:50:54;;;;;;;10.35;5.32;;;14.00;99.90;;;;;;4968412;28;20366;-70
2022/01/01 11:53:32;;;;;;;8.70;6.20;;;13.90;99.90;;;;;;4971612;28;20149;-69
2022/01/01 11:56:11;;;;;;;8.07;5.75;;;13.60;99.90;;;;;;4968529;28;20011;-71
2022/01/01 11:58:50;;;;;;;8.63;5.45;;;13.90;99.90;;;;;;4967970;28;20042;-69
2022/01/01 12:01:19;;;;;;;12.05;5.70;;;13.90;99.90;;;;;;4968784;28;20027;-69
2022/01/01 12:03:50;;;;;;;7.30;5.30;;;14.00;99.90;;;;;;4970547;28;20344;-71
2022/01/01 12:06:16;;;;;;;9.32;5.53;;;14.30;99.90;;;;;;4968739;28;20385;-69
2022/01/01 12:08:46;;;;;;;7.65;5.60;;;13.90;99.90;;;;;;4969240;28;20015;-69
2022/01/01 12:11:29;;;;;;;7.45;4.95;;;14.20;99.90;;;;;;4970800;28;20085;-69
2022/01/01 12:13:56;;;;;;;8.70;6.03;;;13.90;99.90;;;;;;4968556;28;20022;-69
2022/01/01 12:16:22;;;;;;;7.13;4.97;;;13.90;99.90;;;;;;4969548;28;20113;-69
2022/01/01 12:18:47;;;;;;;9.77;5.00;;;14.00;99.90;;;;;;4969608;28;20126;-69
2022/01/01 12:21:21;;;;;;;7.57;4.95;;;14.00;99.90;;;;;;4970192;28;20447;-69
2022/01/01 12:23:48;;;;;;;8.82;4.82;;;14.90;99.90;;;;;;4970253;28;20029;-69
2022/01/01 12:26:14;;;;;;;8.52;6.10;;;14.00;99.90;;;;;;4969809;28;20026;-69
2022/01/01 12:28:42;;;;;;;7.00;4.50;;;14.10;99.90;;;;;;4969285;28;20087;-69
2022/01/01 12:31:14;;;;;;;7.57;5.50;;;14.30;99.90;;;;;;4969474;28;20047;-68
2022/01/01 12:33:48;;;;;;;8.73;4.82;;;14.10;99.90;;;;;;4968815;28;20472;-68
2022/01/01 12:36:17;;;;;;;5.93;4.65;;;15.00;99.90;;;;;;4969104;28;20030;-69
2022/01/01 12:39:00;;;;;;;10.57;5.70;;;14.30;99.90;;;;;;4969781;28;20057;-69
2022/01/01 12:41:40;;;;;;;8.95;5.63;;;14.30;99.90;;;;;;4970222;28;20035;-68